Time;durP1;ratioP1;P1;durP2;ratioP2;P2;SDS_P1;SDS_P2;PMS_P1;PMS_P2;Temp;Humidity;BMP_temperature;BMP_pressure;BME280_temperature;BME280_humidity;BME280_pressure;Samples;Min_cycle;Max_cycle;Signal;HPM_P1;HPM_P2
2021/03/12 00:00:26;;;;;;;16.35;1.33;;;7.70;99.90;;;;;;4986686;28;20697;-65
2021/03/12 00:02:52;;;;;;;8.25;1.35;;;7.70;99.90;;;;;;4984855;28;20488;-65
2021/03/12 00:05:18;;;;;;;10.48;2.00;;;7.70;99.90;;;;;;4985451;28;20038;-65
2021/03/12 00:07:44;;;;;;;16.77;3.15;;;7.70;99.90;;;;;;4985274;28;20051;-65
2021/03/12 00:10:15;;;;;;;9.40;1.40;;;7.70;99.90;;;;;;4984001;28;20536;-65
2021/03/12 00:12:42;;;;;;;8.38;1.30;;;7.70;99.90;;;;;;4983653;28;20031;-65
2021/03/12 00:15:12;;;;;;;16.15;0.95;;;7.70;99.90;;;;;;4978767;28;20037;-65
2021/03/12 00:17:39;;;;;;;19.30;1.92;;;7.80;99.90;;;;;;4983441;28;20430;-65
2021/03/12 00:20:26;;;;;;;8.32;1.35;;;7.80;99.90;;;;;;4982057;28;20576;-65
2021/03/12 00:22:52;;;;;;;10.52;1.00;;;7.80;99.90;;;;;;4984000;28;20038;-65
2021/03/12 00:25:26;;;;;;;10.43;1.13;;;7.80;99.90;;;;;;4981561;28;20038;-65
2021/03/12 00:27:52;;;;;;;16.45;3.28;;;7.80;99.90;;;;;;4982831;28;20118;-65
2021/03/12 00:30:19;;;;;;;8.52;1.67;;;7.70;99.90;;;;;;4982070;28;20625;-66
2021/03/12 00:32:44;;;;;;;9.02;1.52;;;7.70;99.90;;;;;;4983188;28;20406;-65
2021/03/12 00:35:11;;;;;;;6.82;1.05;;;7.70;99.90;;;;;;4981398;28;20031;-65
2021/03/12 00:37:36;;;;;;;17.48;1.80;;;7.70;99.90;;;;;;4984961;28;20035;-65
2021/03/12 00:40:11;;;;;;;4.35;0.80;;;7.60;99.90;;;;;;4981104;28;20034;-65
2021/03/12 00:42:37;;;;;;;11.02;1.52;;;7.60;99.90;;;;;;4984290;28;20125;-65
2021/03/12 00:45:04;;;;;;;6.90;0.73;;;7.60;99.90;;;;;;4982386;28;20163;-65
2021/03/12 00:47:29;;;;;;;4.53;0.70;;;7.70;99.90;;;;;;4981036;28;20050;-65
2021/03/12 00:49:55;;;;;;;10.82;1.30;;;7.60;99.90;;;;;;4982937;28;20566;-66
2021/03/12 00:52:21;;;;;;;8.85;1.45;;;7.70;99.90;;;;;;4985426;28;20837;-65
2021/03/12 00:54:46;;;;;;;18.08;1.45;;;7.70;99.90;;;;;;4985453;28;20547;-65
2021/03/12 00:57:12;;;;;;;10.70;1.55;;;7.70;99.90;;;;;;4984735;28;20262;-65
2021/03/12 00:59:37;;;;;;;4.32;0.80;;;7.60;99.90;;;;;;4986972;28;20406;-65
2021/03/12 01:02:03;;;;;;;9.35;1.15;;;7.60;99.90;;;;;;4985550;28;20088;-65
2021/03/12 01:04:28;;;;;;;7.93;1.13;;;7.60;99.90;;;;;;4976935;28;20127;-65
2021/03/12 01:06:54;;;;;;;7.13;0.93;;;7.60;99.90;;;;;;4975601;28;20378;-66
2021/03/12 01:09:19;;;;;;;12.40;1.25;;;7.50;99.90;;;;;;4980343;28;20027;-65
2021/03/12 01:11:45;;;;;;;6.70;1.42;;;7.50;99.90;;;;;;4975919;28;20061;-66
2021/03/12 01:14:10;;;;;;;9.07;1.48;;;7.40;99.90;;;;;;4978943;28;20061;-65
2021/03/12 01:16:39;;;;;;;6.70;0.95;;;7.40;99.90;;;;;;4975655;28;20030;-65
2021/03/12 01:19:05;;;;;;;7.55;1.90;;;7.40;99.90;;;;;;4978493;28;20096;-65
2021/03/12 01:21:30;;;;;;;10.77;1.10;;;7.30;99.90;;;;;;4976110;28;20225;-65
2021/03/12 01:23:56;;;;;;;7.03;1.77;;;7.30;99.90;;;;;;4977359;28;20519;-65
2021/03/12 01:26:22;;;;;;;13.02;0.80;;;7.20;99.90;;;;;;4977273;28;20074;-65
2021/03/12 01:28:47;;;;;;;12.98;2.70;;;7.30;99.90;;;;;;4974931;28;20495;-65
2021/03/12 01:31:13;;;;;;;7.70;1.08;;;7.20;99.90;;;;;;4978187;28;20030;-65
2021/03/12 01:33:39;;;;;;;14.25;1.25;;;7.20;99.90;;;;;;4974255;28;20142;-65
2021/03/12 01:36:05;;;;;;;5.93;0.90;;;7.30;99.90;;;;;;4978149;28;20043;-65
2021/03/12 01:38:30;;;;;;;7.90;1.40;;;7.20;99.90;;;;;;4976018;28;20738;-65
2021/03/12 01:40:56;;;;;;;10.52;0.95;;;7.20;99.90;;;;;;4976910;28;20038;-65
2021/03/12 01:43:22;;;;;;;7.38;1.15;;;7.20;99.90;;;;;;4977123;28;20035;-65
2021/03/12 01:45:50;;;;;;;13.10;1.23;;;7.20;99.90;;;;;;4974822;28;20043;-65
2021/03/12 01:48:21;;;;;;;11.73;1.73;;;7.20;99.90;;;;;;4977008;28;20035;-65
2021/03/12 01:50:55;;;;;;;16.02;1.75;;;7.20;99.90;;;;;;4976142;28;20069;-65
2021/03/12 01:53:22;;;;;;;7.88;1.13;;;7.30;99.90;;;;;;4976730;28;20040;-65
2021/03/12 01:55:49;;;;;;;20.15;2.35;;;7.30;99.90;;;;;;4976237;28;20669;-65
2021/03/12 01:58:15;;;;;;;9.75;2.28;;;7.30;99.90;;;;;;4974018;28;20038;-65
2021/03/12 02:00:41;;;;;;;8.35;1.60;;;7.30;99.90;;;;;;4978521;28;20659;-65
2021/03/12 02:03:08;;;;;;;18.83;2.65;;;7.30;99.90;;;;;;4974493;28;20030;-65
2021/03/12 02:05:35;;;;;;;12.77;2.15;;;7.30;99.90;;;;;;4977216;28;20038;-65
2021/03/12 02:08:02;;;;;;;9.52;1.70;;;7.30;99.90;;;;;;4974778;28;20690;-65
2021/03/12 02:10:28;;;;;;;11.32;1.70;;;7.30;99.90;;;;;;4975088;28;20038;-65
2021/03/12 02:13:10;;;;;;;19.95;1.73;;;7.30;99.90;;;;;;4976963;28;20406;-65
2021/03/12 02:15:56;;;;;;;28.17;4.43;;;7.30;99.90;;;;;;4977998;28;20053;-65
2021/03/12 02:18:37;;;;;;;8.90;1.10;;;7.20;99.90;;;;;;4977825;28;20466;-66
2021/03/12 02:21:10;;;;;;;17.00;2.20;;;7.20;99.90;;;;;;4978126;28;20030;-65
2021/03/12 02:23:51;;;;;;;8.75;2.03;;;7.20;99.90;;;;;;4978066;28;20042;-66
2021/03/12 02:26:42;;;;;;;15.20;2.03;;;7.20;99.90;;;;;;4978000;28;20041;-65
2021/03/12 02:29:09;;;;;;;;;;;7.20;99.90;;;;;;4980868;28;20038;-65
2021/03/12 02:31:36;;;;;;;9.52;1.58;;;7.20;99.90;;;;;;4980544;28;19964;-65
2021/03/12 02:34:06;;;;;;;15.68;2.13;;;7.20;99.90;;;;;;4977710;28;20102;-65
2021/03/12 02:36:33;;;;;;;10.35;1.75;;;7.20;99.90;;;;;;4973920;28;20130;-65
2021/03/12 02:39:00;;;;;;;21.30;1.83;;;7.20;99.90;;;;;;4977385;28;20042;-65
2021/03/12 02:41:29;;;;;;;7.07;1.25;;;7.20;99.90;;;;;;4974581;28;20041;-65
2021/03/12 02:43:55;;;;;;;11.15;2.13;;;7.00;99.90;;;;;;4977155;28;20114;-65
2021/03/12 02:46:23;;;;;;;13.20;1.83;;;7.00;99.90;;;;;;4975269;28;20050;-65
2021/03/12 02:48:49;;;;;;;9.77;1.88;;;6.90;99.90;;;;;;4975535;28;20207;-65
2021/03/12 02:51:16;;;;;;;8.82;1.88;;;6.90;99.90;;;;;;4976179;28;20042;-65
2021/03/12 02:53:42;;;;;;;9.05;1.08;;;6.70;99.90;;;;;;4974339;28;20146;-65
2021/03/12 02:56:08;;;;;;;17.67;1.63;;;6.60;99.90;;;;;;4977275;28;20124;-65
2021/03/12 02:58:36;;;;;;;13.13;2.20;;;6.50;99.90;;;;;;4973568;28;20031;-65
2021/03/12 03:01:04;;;;;;;17.05;3.22;;;6.50;99.90;;;;;;4977697;28;20530;-65
2021/03/12 03:03:31;;;;;;;9.38;1.58;;;6.40;99.90;;;;;;4972261;28;20443;-65
2021/03/12 03:05:57;;;;;;;19.23;2.05;;;6.30;99.90;;;;;;4976735;28;20537;-65
2021/03/12 03:08:22;;;;;;;18.73;2.47;;;6.30;99.90;;;;;;4974853;28;20511;-65
2021/03/12 03:10:48;;;;;;;12.65;2.63;;;6.20;99.90;;;;;;4975011;28;20035;-65
2021/03/12 03:13:14;;;;;;;16.35;1.85;;;6.20;99.90;;;;;;4976504;28;20050;-65
2021/03/12 03:15:42;;;;;;;14.18;2.05;;;6.20;99.90;;;;;;4973514;28;20389;-65
2021/03/12 03:18:08;;;;;;;14.30;2.10;;;6.10;99.90;;;;;;4980814;28;20516;-65
2021/03/12 03:20:35;;;;;;;16.98;3.20;;;6.10;99.90;;;;;;4976039;28;20134;-65
2021/03/12 03:23:01;;;;;;;18.38;2.03;;;6.00;99.90;;;;;;4980509;28;20026;-65
2021/03/12 03:25:26;;;;;;;10.27;1.98;;;6.00;99.90;;;;;;4978415;28;20100;-65
2021/03/12 03:27:52;;;;;;;22.70;1.42;;;5.90;99.90;;;;;;4981764;28;20031;-66
2021/03/12 03:30:18;;;;;;;10.07;1.70;;;5.90;99.90;;;;;;4988409;28;20098;-65
2021/03/12 03:32:44;;;;;;;7.82;1.08;;;5.90;99.90;;;;;;4990415;28;20038;-65
2021/03/12 03:35:12;;;;;;;12.43;2.17;;;5.90;99.90;;;;;;4987634;28;20510;-65
2021/03/12 03:37:38;;;;;;;9.75;1.38;;;5.90;99.90;;;;;;4979846;28;20430;-65
2021/03/12 03:40:07;;;;;;;7.97;1.13;;;5.90;99.90;;;;;;4980429;28;20114;-65
2021/03/12 03:42:35;;;;;;;12.63;1.92;;;5.90;99.90;;;;;;4976798;28;20039;-66
2021/03/12 03:45:02;;;;;;;12.63;2.85;;;5.90;99.90;;;;;;4980605;28;20563;-65
2021/03/12 03:47:30;;;;;;;15.00;2.67;;;5.80;99.90;;;;;;4979941;28;20038;-65
2021/03/12 03:49:57;;;;;;;4.78;1.20;;;5.80;99.90;;;;;;4976792;28;20081;-65
2021/03/12 03:52:23;;;;;;;19.33;2.03;;;5.80;99.90;;;;;;4979420;28;20506;-65
2021/03/12 03:54:51;;;;;;;7.47;0.88;;;5.80;99.90;;;;;;4976321;28;20038;-65
2021/03/12 03:57:18;;;;;;;9.75;1.85;;;5.80;99.90;;;;;;4978640;28;20044;-65
2021/03/12 03:59:44;;;;;;;13.00;1.45;;;5.80;99.90;;;;;;4978195;28;20038;-65
2021/03/12 04:02:13;;;;;;;9.48;1.13;;;5.80;99.90;;;;;;4976651;28;20085;-64
2021/03/12 04:04:39;;;;;;;7.78;1.13;;;5.80;99.90;;;;;;4977593;28;20049;-65
2021/03/12 04:07:08;;;;;;;8.05;1.50;;;5.80;99.90;;;;;;4979061;28;20046;-65
2021/03/12 04:09:35;;;;;;;12.43;1.08;;;5.80;99.90;;;;;;4976970;28;20038;-65
2021/03/12 04:12:01;;;;;;;11.98;1.33;;;5.80;99.90;;;;;;4979946;28;20762;-65
2021/03/12 04:14:27;;;;;;;12.00;1.30;;;5.70;99.90;;;;;;4976762;28;20041;-65
2021/03/12 04:16:53;;;;;;;10.35;1.40;;;5.70;99.90;;;;;;4976051;28;20023;-66
2021/03/12 04:19:20;;;;;;;20.80;1.70;;;5.70;99.90;;;;;;4980789;28;20134;-65
2021/03/12 04:21:47;;;;;;;9.75;1.70;;;5.60;99.90;;;;;;4978094;28;20034;-66
2021/03/12 04:24:13;;;;;;;12.80;1.45;;;5.60;99.90;;;;;;4980111;28;20048;-65
2021/03/12 04:26:39;;;;;;;8.25;1.33;;;5.60;99.90;;;;;;4976757;28;20041;-65
2021/03/12 04:29:05;;;;;;;6.28;1.88;;;5.40;99.90;;;;;;4975584;28;20035;-65
2021/03/12 04:31:31;;;;;;;9.05;0.85;;;5.50;99.90;;;;;;4979476;28;20091;-65
2021/03/12 04:33:57;;;;;;;6.35;2.10;;;5.50;99.90;;;;;;4979178;28;20037;-64
2021/03/12 04:36:24;;;;;;;12.68;1.77;;;5.40;99.90;;;;;;4976642;28;20386;-65
2021/03/12 04:38:50;;;;;;;13.57;1.63;;;5.40;99.90;;;;;;4978391;28;20118;-65
2021/03/12 04:41:16;;;;;;;9.80;1.35;;;5.40;99.90;;;;;;4975728;28;20109;-65
2021/03/12 04:43:42;;;;;;;12.80;1.60;;;5.40;99.90;;;;;;4977714;28;20031;-65
2021/03/12 04:46:08;;;;;;;5.80;1.48;;;5.40;99.90;;;;;;4977802;28;20026;-65
2021/03/12 04:48:36;;;;;;;8.02;1.40;;;5.50;99.90;;;;;;4976382;28;20055;-65
2021/03/12 04:51:02;;;;;;;6.50;1.05;;;5.40;99.90;;;;;;4973443;28;20030;-65
2021/03/12 04:53:29;;;;;;;14.27;1.85;;;5.50;99.90;;;;;;4978169;28;20035;-65
2021/03/12 04:55:55;;;;;;;8.25;1.90;;;5.50;99.90;;;;;;4978857;28;20271;-65
2021/03/12 04:58:21;;;;;;;16.52;1.58;;;5.40;99.90;;;;;;4976244;28;20035;-65
2021/03/12 05:00:47;;;;;;;11.60;1.33;;;5.50;99.90;;;;;;4976966;28;20043;-65
2021/03/12 05:03:13;;;;;;;11.68;1.40;;;5.50;99.90;;;;;;4976414;28;20042;-65
2021/03/12 05:05:40;;;;;;;9.13;1.27;;;5.50;99.90;;;;;;4981333;28;20122;-65
2021/03/12 05:08:09;;;;;;;6.07;1.70;;;5.50;99.90;;;;;;4977616;28;20034;-65
2021/03/12 05:10:35;;;;;;;10.80;1.83;;;5.50;99.90;;;;;;4976465;28;20042;-65
2021/03/12 05:13:03;;;;;;;11.20;1.05;;;5.50;99.90;;;;;;4978521;28;20034;-64
2021/03/12 05:15:28;;;;;;;8.95;1.15;;;5.40;99.90;;;;;;4978906;28;20039;-65
2021/03/12 05:17:54;;;;;;;11.60;2.58;;;5.50;99.90;;;;;;4975655;28;20035;-64
2021/03/12 05:20:20;;;;;;;8.40;1.05;;;5.50;99.90;;;;;;4979044;28;20116;-65
2021/03/12 05:22:45;;;;;;;7.63;1.27;;;5.50;99.90;;;;;;4978018;28;20459;-65
2021/03/12 05:25:11;;;;;;;13.80;1.45;;;5.50;99.90;;;;;;4976427;28;20154;-65
2021/03/12 05:27:37;;;;;;;35.80;2.53;;;5.50;99.90;;;;;;4976696;28;20537;-65
2021/03/12 05:30:04;;;;;;;14.75;1.83;;;5.50;99.90;;;;;;4976088;28;20076;-66
2021/03/12 05:32:30;;;;;;;23.95;3.25;;;5.50;99.90;;;;;;4975356;28;20062;-65
2021/03/12 05:34:55;;;;;;;9.80;1.25;;;5.50;99.90;;;;;;4978514;28;20107;-65
2021/03/12 05:37:21;;;;;;;9.20;1.33;;;5.50;99.90;;;;;;4978173;28;20041;-64
2021/03/12 05:39:46;;;;;;;8.63;1.20;;;5.50;99.90;;;;;;4975641;28;20047;-65
2021/03/12 05:42:12;;;;;;;6.65;1.25;;;5.50;99.90;;;;;;4976404;28;20588;-65
2021/03/12 05:44:38;;;;;;;12.32;1.67;;;5.50;99.90;;;;;;4976750;28;20107;-65
2021/03/12 05:47:08;;;;;;;10.32;1.58;;;5.50;99.90;;;;;;4975304;28;20067;-65
2021/03/12 05:49:37;;;;;;;10.98;1.48;;;5.50;99.90;;;;;;4981452;28;20572;-65
2021/03/12 05:52:03;;;;;;;8.60;1.88;;;5.50;99.90;;;;;;4974137;28;20130;-66
2021/03/12 05:54:30;;;;;;;15.95;2.47;;;5.50;99.90;;;;;;4978139;28;20035;-64
2021/03/12 05:56:57;;;;;;;9.75;1.38;;;5.50;99.90;;;;;;4974969;28;20436;-64
2021/03/12 05:59:22;;;;;;;20.58;2.85;;;5.50;99.90;;;;;;4976904;28;20054;-65
2021/03/12 06:01:48;;;;;;;14.32;1.83;;;5.50;99.90;;;;;;4975188;28;20112;-65
2021/03/12 06:04:14;;;;;;;8.80;0.90;;;5.50;99.90;;;;;;4976952;28;20039;-64
2021/03/12 06:06:39;;;;;;;9.50;1.40;;;5.50;99.90;;;;;;4975996;28;20095;-65
2021/03/12 06:09:05;;;;;;;12.88;1.25;;;5.40;99.90;;;;;;4974760;28;20042;-65
2021/03/12 06:11:32;;;;;;;14.75;2.30;;;5.40;99.90;;;;;;4977251;28;20038;-65
2021/03/12 06:13:59;;;;;;;6.75;0.93;;;5.40;99.90;;;;;;4978680;28;20032;-65
2021/03/12 06:16:27;;;;;;;7.15;1.02;;;5.30;99.90;;;;;;4974088;28;20051;-65
2021/03/12 06:19:15;;;;;;;9.30;1.40;;;5.30;99.90;;;;;;4978086;28;20044;-65
2021/03/12 06:21:43;;;;;;;14.98;1.27;;;5.30;99.90;;;;;;4978314;28;20198;-65
2021/03/12 06:24:23;;;;;;;20.35;1.45;;;5.30;99.90;;;;;;4976282;28;20057;-65
2021/03/12 06:26:48;;;;;;;15.80;1.98;;;5.30;99.90;;;;;;4974590;28;20043;-65
2021/03/12 06:29:14;;;;;;;8.18;1.23;;;5.30;99.90;;;;;;4975297;28;20026;-65
2021/03/12 06:31:50;;;;;;;13.68;1.55;;;5.40;99.90;;;;;;4974974;28;20121;-65
2021/03/12 06:34:16;;;;;;;8.88;1.30;;;5.40;99.90;;;;;;4977352;28;20131;-65
2021/03/12 06:36:41;;;;;;;10.20;1.92;;;5.40;99.90;;;;;;4977250;28;20178;-65
2021/03/12 06:39:07;;;;;;;19.45;1.35;;;5.40;99.90;;;;;;4978706;28;20031;-65
2021/03/12 06:41:46;;;;;;;18.27;2.58;;;5.40;99.90;;;;;;4973923;28;20441;-66
2021/03/12 06:44:31;;;;;;;14.18;1.75;;;5.40;99.90;;;;;;4974324;28;20041;-65
2021/03/12 06:46:58;;;;;;;10.57;1.10;;;5.50;99.90;;;;;;4973637;28;20415;-65
2021/03/12 06:49:24;;;;;;;9.80;0.98;;;5.60;99.90;;;;;;4977563;28;20375;-65
2021/03/12 06:52:04;;;;;;;8.05;1.40;;;5.60;99.90;;;;;;4974080;28;20073;-65
2021/03/12 06:54:34;;;;;;;22.55;3.13;;;5.70;99.90;;;;;;4975603;28;20026;-65
2021/03/12 06:57:16;;;;;;;8.57;1.65;;;5.80;99.90;;;;;;4984694;28;20022;-63
2021/03/12 06:59:42;;;;;;;8.18;1.83;;;5.80;99.90;;;;;;4980137;28;20677;-65
2021/03/12 07:02:08;;;;;;;10.15;1.40;;;5.90;99.90;;;;;;4979311;28;20031;-65
2021/03/12 07:04:33;;;;;;;12.02;1.27;;;5.90;99.90;;;;;;4981846;28;20031;-65
2021/03/12 07:07:00;;;;;;;9.40;1.27;;;6.00;99.90;;;;;;4985875;28;20030;-65
2021/03/12 07:09:27;;;;;;;12.55;1.90;;;6.00;99.90;;;;;;4977544;28;20031;-65
2021/03/12 07:11:57;;;;;;;19.10;1.77;;;6.10;99.90;;;;;;4989788;28;20027;-65
2021/03/12 07:14:23;;;;;;;13.73;3.03;;;6.10;99.90;;;;;;4987635;28;20030;-66
2021/03/12 07:16:50;;;;;;;19.45;2.63;;;6.20;99.90;;;;;;4983742;28;20504;-65
2021/03/12 07:19:16;;;;;;;15.93;2.13;;;6.20;99.90;;;;;;4989825;28;20026;-65
2021/03/12 07:21:46;;;;;;;21.05;2.20;;;6.20;99.90;;;;;;4980743;28;20023;-66
2021/03/12 07:24:14;;;;;;;11.90;2.83;;;6.20;99.90;;;;;;4983268;28;20042;-65
2021/03/12 07:26:48;;;;;;;13.18;1.73;;;6.20;99.90;;;;;;4981056;28;20060;-66
2021/03/12 07:29:16;;;;;;;17.45;1.75;;;6.20;99.90;;;;;;4985765;28;20060;-65
2021/03/12 07:31:43;;;;;;;11.85;1.55;;;6.20;99.90;;;;;;4988536;28;20030;-65
2021/03/12 07:34:19;;;;;;;21.10;2.15;;;6.30;99.90;;;;;;4984208;28;20539;-65
2021/03/12 07:36:49;;;;;;;18.85;3.60;;;6.40;99.90;;;;;;4983603;28;20038;-70
2021/03/12 07:39:36;;;;;;;11.80;2.15;;;6.50;99.90;;;;;;4980965;28;20031;-65
2021/03/12 07:42:02;;;;;;;9.77;1.77;;;6.60;99.90;;;;;;4981356;28;20503;-64
2021/03/12 07:44:29;;;;;;;14.98;1.88;;;6.80;99.90;;;;;;5009856;28;20110;-65
2021/03/12 07:46:56;;;;;;;21.45;2.22;;;6.80;99.90;;;;;;4982827;28;20031;-66
2021/03/12 07:49:42;;;;;;;20.17;2.45;;;6.90;99.90;;;;;;4983327;28;20030;-65
2021/03/12 07:52:08;;;;;;;13.48;1.85;;;7.10;99.90;;;;;;4982201;28;20023;-65
2021/03/12 07:54:43;;;;;;;16.77;3.17;;;7.30;99.90;;;;;;4983661;28;20031;-65
2021/03/12 07:57:32;;;;;;;16.63;2.13;;;7.40;99.90;;;;;;4981186;28;20066;-65
2021/03/12 08:00:00;;;;;;;22.25;1.73;;;7.60;99.90;;;;;;4975265;28;20027;-66
2021/03/12 08:02:54;;;;;;;15.55;2.40;;;7.70;99.90;;;;;;4983556;28;20031;-65
2021/03/12 08:05:41;;;;;;;14.27;1.55;;;7.80;99.90;;;;;;5007112;28;20035;-65
2021/03/12 08:08:36;;;;;;;16.40;3.67;;;8.00;99.90;;;;;;4984803;28;20046;-65
2021/03/12 08:11:22;;;;;;;19.33;2.95;;;8.10;99.90;;;;;;4984414;28;20046;-66
2021/03/12 08:13:49;;;;;;;22.50;3.83;;;8.30;99.90;;;;;;4983807;28;20030;-65
2021/03/12 08:16:15;;;;;;;20.50;2.00;;;8.50;99.90;;;;;;4984838;28;20030;-65
2021/03/12 08:18:41;;;;;;;17.23;2.35;;;8.70;99.90;;;;;;4986784;28;20127;-65
2021/03/12 08:21:30;;;;;;;21.00;3.05;;;8.90;99.90;;;;;;4986671;28;20053;-65
2021/03/12 08:24:00;;;;;;;18.67;1.83;;;9.00;99.90;;;;;;4985847;28;20043;-65
2021/03/12 08:26:51;;;;;;;9.80;2.17;;;9.20;99.90;;;;;;4985807;28;20035;-65
2021/03/12 08:29:43;;;;;;;14.07;2.10;;;9.40;99.90;;;;;;4986196;28;20038;-65
2021/03/12 08:32:38;;;;;;;15.88;2.42;;;9.40;99.90;;;;;;4985562;28;20100;-66
2021/03/12 08:35:26;;;;;;;13.40;2.35;;;9.30;99.90;;;;;;4984841;28;20031;-66
2021/03/12 08:37:52;;;;;;;8.93;1.90;;;9.20;99.90;;;;;;4986237;28;20027;-65
2021/03/12 08:40:18;;;;;;;16.63;2.45;;;9.20;99.90;;;;;;4985681;28;20061;-65
2021/03/12 08:43:08;;;;;;;9.50;2.10;;;9.30;99.90;;;;;;4986128;28;20023;-65
2021/03/12 08:45:45;;;;;;;13.60;2.40;;;9.50;99.90;;;;;;4987547;28;20042;-64
2021/03/12 08:48:11;;;;;;;13.40;2.25;;;9.50;99.90;;;;;;4985798;28;20035;-67
2021/03/12 08:50:41;;;;;;;19.30;2.08;;;9.60;99.90;;;;;;4984688;28;20049;-66
2021/03/12 08:53:08;;;;;;;23.33;4.22;;;9.60;99.90;;;;;;4986257;28;20037;-65
2021/03/12 08:55:34;;;;;;;22.38;2.90;;;9.50;99.90;;;;;;4984619;28;20062;-65
2021/03/12 08:58:13;;;;;;;16.77;2.95;;;9.50;99.90;;;;;;4986172;28;20031;-66
2021/03/12 09:00:40;;;;;;;18.48;2.78;;;9.40;99.90;;;;;;4984346;28;20509;-66
2021/03/12 09:03:34;;;;;;;15.57;2.28;;;9.20;99.90;;;;;;4986212;28;20117;-65
2021/03/12 09:06:05;;;;;;;17.80;2.75;;;9.10;99.90;;;;;;4985440;28;20046;-66
2021/03/12 09:08:33;;;;;;;19.15;3.30;;;8.80;99.90;;;;;;4985758;28;20176;-66
2021/03/12 09:11:00;;;;;;;15.65;2.15;;;8.80;99.90;;;;;;4985857;28;20030;-66
2021/03/12 09:13:33;;;;;;;15.98;3.45;;;8.90;99.90;;;;;;4985668;28;20042;-66
2021/03/12 09:16:01;;;;;;;14.05;2.00;;;9.20;99.90;;;;;;4985229;28;20117;-65
2021/03/12 09:18:28;;;;;;;14.65;2.45;;;9.30;99.90;;;;;;4984393;28;20501;-66
2021/03/12 09:21:05;;;;;;;15.77;2.47;;;9.50;99.90;;;;;;4984073;28;20031;-65
2021/03/12 09:23:46;;;;;;;16.88;2.50;;;9.60;99.90;;;;;;4985922;28;20122;-66
2021/03/12 09:26:13;;;;;;;12.25;2.35;;;9.60;99.90;;;;;;4982747;28;20121;-65
2021/03/12 09:28:39;;;;;;;16.67;2.25;;;9.50;99.90;;;;;;4984672;28;20392;-66
2021/03/12 09:31:07;;;;;;;16.15;3.05;;;9.50;99.90;;;;;;4985051;28;20095;-66
2021/03/12 09:33:41;;;;;;;11.10;2.55;;;9.50;99.90;;;;;;4985431;28;20043;-65
2021/03/12 09:36:25;;;;;;;13.55;2.72;;;9.60;99.90;;;;;;4984723;28;20042;-65
2021/03/12 09:38:53;;;;;;;20.77;3.90;;;9.60;99.90;;;;;;4983767;28;20038;-67
2021/03/12 09:41:24;;;;;;;26.42;4.80;;;9.60;99.90;;;;;;4985325;28;20038;-66
2021/03/12 09:44:04;;;;;;;;;;;9.60;99.90;;;;;;4986350;28;20121;-66
2021/03/12 09:46:42;;;;;;;11.68;2.08;;;9.50;99.90;;;;;;4984939;28;19920;-65
2021/03/12 09:49:11;;;;;;;19.65;2.75;;;9.60;99.90;;;;;;4985076;28;20041;-65
2021/03/12 09:51:38;;;;;;;12.13;2.10;;;9.30;99.90;;;;;;4979125;28;20046;-66
2021/03/12 09:54:05;;;;;;;18.35;2.15;;;9.10;99.90;;;;;;4983933;28;20785;-67
2021/03/12 09:56:31;;;;;;;21.70;3.25;;;8.70;99.90;;;;;;4984385;28;20117;-66
2021/03/12 09:58:59;;;;;;;17.52;2.75;;;8.30;99.90;;;;;;4985024;28;20137;-67
2021/03/12 10:01:25;;;;;;;14.20;2.90;;;7.90;99.90;;;;;;4983009;28;20031;-66
2021/03/12 10:03:50;;;;;;;12.30;2.17;;;7.60;99.90;;;;;;4983616;28;20060;-67
2021/03/12 10:06:16;;;;;;;8.65;1.58;;;7.40;99.90;;;;;;4983697;28;20035;-66
2021/03/12 10:09:08;;;;;;;13.50;2.83;;;7.40;99.90;;;;;;4984825;28;20655;-66
2021/03/12 10:11:45;;;;;;;11.13;2.13;;;7.20;99.90;;;;;;4975832;28;20047;-66
2021/03/12 10:14:29;;;;;;;13.18;2.10;;;7.20;99.90;;;;;;4984894;28;20034;-65
2021/03/12 10:17:09;;;;;;;11.00;2.30;;;7.00;99.90;;;;;;4983157;28;20109;-66
2021/03/12 10:19:53;;;;;;;21.77;3.75;;;7.00;99.90;;;;;;4986176;28;20042;-65
2021/03/12 10:22:37;;;;;;;16.10;2.97;;;7.10;99.90;;;;;;4988603;28;20031;-67
2021/03/12 10:25:07;;;;;;;19.58;2.45;;;7.30;99.90;;;;;;4984860;28;20031;-67
2021/03/12 10:27:35;;;;;;;14.35;3.33;;;7.40;99.90;;;;;;4982511;28;20042;-67
2021/03/12 10:30:10;;;;;;;26.45;3.33;;;7.60;99.90;;;;;;4982763;28;20034;-66
2021/03/12 10:32:54;;;;;;;14.60;4.00;;;7.90;99.90;;;;;;4980936;28;20407;-66
2021/03/12 10:35:21;;;;;;;10.18;2.05;;;8.00;99.90;;;;;;4984567;28;20054;-65
2021/03/12 10:37:47;;;;;;;11.93;2.22;;;8.10;99.90;;;;;;4984457;28;20061;-65
2021/03/12 10:40:14;;;;;;;11.95;1.45;;;8.10;99.90;;;;;;4982733;28;20158;-66
2021/03/12 10:42:40;;;;;;;11.60;2.30;;;8.00;99.90;;;;;;4983796;28;20049;-67
2021/03/12 10:45:10;;;;;;;12.07;3.30;;;8.10;99.90;;;;;;4980322;28;20418;-67
2021/03/12 10:47:36;;;;;;;;;;;8.20;99.90;;;;;;4977032;28;20562;-66
2021/03/12 10:50:21;;;;;;;19.50;2.60;;;8.40;99.90;;;;;;4983643;28;19914;-65
2021/03/12 10:52:47;;;;;;;15.40;2.13;;;8.40;99.90;;;;;;4982237;28;20519;-64
2021/03/12 10:55:13;;;;;;;7.50;1.40;;;8.40;99.90;;;;;;4984505;28;20065;-65
2021/03/12 10:57:47;;;;;;;9.48;1.95;;;8.40;99.90;;;;;;4980744;28;20413;-70
2021/03/12 11:00:22;;;;;;;13.85;1.85;;;8.40;99.90;;;;;;4980038;28;20034;-64
2021/03/12 11:02:49;;;;;;;16.48;1.52;;;8.50;99.90;;;;;;4977062;28;20039;-66
2021/03/12 11:05:17;;;;;;;10.50;2.25;;;8.60;99.90;;;;;;4980594;28;20122;-67
2021/03/12 11:07:44;;;;;;;13.27;2.05;;;8.70;99.90;;;;;;4976991;28;20074;-67
2021/03/12 11:10:10;;;;;;;10.40;1.73;;;8.80;99.90;;;;;;4979349;28;20129;-66
2021/03/12 11:12:41;;;;;;;16.73;2.40;;;8.70;99.90;;;;;;4981470;28;20958;-65
2021/03/12 11:15:08;;;;;;;11.15;2.63;;;8.70;99.90;;;;;;4973798;28;20503;-67
2021/03/12 11:17:34;;;;;;;7.25;1.73;;;8.90;99.90;;;;;;4977211;28;20500;-65
2021/03/12 11:19:59;;;;;;;14.38;2.58;;;9.00;99.90;;;;;;4976596;28;20092;-65
2021/03/12 11:22:25;;;;;;;14.70;2.00;;;9.10;99.90;;;;;;4984265;28;20038;-67
2021/03/12 11:24:51;;;;;;;6.25;2.28;;;9.20;99.90;;;;;;4978340;28;20038;-65
2021/03/12 11:27:16;;;;;;;7.85;1.58;;;9.10;99.90;;;;;;4981109;28;20035;-67
2021/03/12 11:29:43;;;;;;;11.63;1.90;;;9.10;99.90;;;;;;4981534;28;20058;-66
2021/03/12 11:32:10;;;;;;;9.80;2.00;;;9.00;99.90;;;;;;4980628;28;20030;-67
2021/03/12 11:34:36;;;;;;;8.40;1.88;;;9.00;99.90;;;;;;4980519;28;20095;-67
2021/03/12 11:37:02;;;;;;;11.57;3.00;;;8.90;99.90;;;;;;4983872;28;20031;-67
2021/03/12 11:39:27;;;;;;;10.02;2.67;;;8.70;99.90;;;;;;5013055;28;20045;-67
2021/03/12 11:41:53;;;;;;;17.65;2.83;;;8.60;99.90;;;;;;4993242;28;20038;-65
2021/03/12 11:44:19;;;;;;;15.93;3.45;;;8.60;99.90;;;;;;4988809;28;20041;-66
2021/03/12 11:46:44;;;;;;;20.27;2.90;;;8.70;99.90;;;;;;5000065;28;20077;-67
2021/03/12 11:49:10;;;;;;;15.20;2.25;;;8.80;99.90;;;;;;4993488;28;20542;-70
2021/03/12 11:51:40;;;;;;;13.55;2.65;;;9.00;99.90;;;;;;5017627;28;20094;-65
2021/03/12 11:54:06;;;;;;;16.67;3.70;;;9.10;99.90;;;;;;4991258;28;20080;-65
2021/03/12 11:56:32;;;;;;;10.48;2.20;;;9.20;99.90;;;;;;4997296;28;20068;-67
2021/03/12 11:58:58;;;;;;;13.18;2.20;;;9.20;99.90;;;;;;4992452;28;20042;-65
2021/03/12 12:01:24;;;;;;;11.70;2.53;;;9.20;99.90;;;;;;4990517;28;20556;-65
2021/03/12 12:03:50;;;;;;;8.23;1.77;;;9.10;99.90;;;;;;4988260;28;20068;-66
2021/03/12 12:06:15;;;;;;;12.13;2.35;;;9.10;99.90;;;;;;4991585;28;20083;-66
2021/03/12 12:08:41;;;;;;;12.35;2.15;;;9.00;99.90;;;;;;4994972;28;20038;-66
2021/03/12 12:11:07;;;;;;;6.60;2.25;;;9.00;99.90;;;;;;4991163;28;20129;-66
2021/03/12 12:13:32;;;;;;;9.90;2.00;;;9.00;99.90;;;;;;4990829;28;20164;-66
2021/03/12 12:15:58;;;;;;;6.93;1.52;;;9.00;99.90;;;;;;4987527;28;20050;-65
2021/03/12 12:18:23;;;;;;;8.23;1.60;;;9.10;99.90;;;;;;4989312;28;20045;-66
2021/03/12 12:20:49;;;;;;;11.18;1.55;;;9.20;99.90;;;;;;4995912;28;20047;-66
2021/03/12 12:23:14;;;;;;;8.98;1.38;;;9.10;99.90;;;;;;4988513;28;20054;-67
2021/03/12 12:25:40;;;;;;;10.50;1.73;;;9.10;99.90;;;;;;4976620;28;20110;-67
2021/03/12 12:28:06;;;;;;;8.05;1.48;;;9.10;99.90;;;;;;4983616;28;20772;-67
2021/03/12 12:30:32;;;;;;;8.90;1.42;;;9.10;99.90;;;;;;4990994;28;20035;-66
2021/03/12 12:32:59;;;;;;;13.23;1.55;;;9.00;99.90;;;;;;4988499;28;20031;-67
2021/03/12 12:35:25;;;;;;;5.82;2.20;;;9.00;99.90;;;;;;4987913;28;20046;-67
2021/03/12 12:37:51;;;;;;;6.63;1.45;;;9.00;99.90;;;;;;5009121;28;20526;-66
2021/03/12 12:40:18;;;;;;;11.45;2.13;;;9.00;99.90;;;;;;4987387;28;20172;-66
2021/03/12 12:42:44;;;;;;;5.70;1.20;;;8.90;99.90;;;;;;5009193;28;20026;-64
2021/03/12 12:45:10;;;;;;;11.52;2.55;;;8.90;99.90;;;;;;5003128;28;20042;-66
2021/03/12 12:47:36;;;;;;;10.10;1.60;;;8.90;99.90;;;;;;4990132;28;20406;-65
2021/03/12 12:50:04;;;;;;;10.18;2.05;;;8.80;99.90;;;;;;4990541;28;20027;-66
2021/03/12 12:52:29;;;;;;;8.27;1.63;;;8.80;99.90;;;;;;4991164;28;20095;-65
2021/03/12 12:54:55;;;;;;;8.38;1.45;;;8.70;99.90;;;;;;4993701;28;20105;-64
2021/03/12 12:57:22;;;;;;;11.73;2.40;;;8.50;99.90;;;;;;4990197;28;20649;-66
2021/03/12 12:59:48;;;;;;;11.40;1.92;;;8.40;99.90;;;;;;4988319;28;20031;-64